Time;durP1;ratioP1;P1;durP2;ratioP2;P2;SDS_P1;SDS_P2;PMS_P1;PMS_P2;Temp;Humidity;BMP_temperature;BMP_pressure;BME280_temperature;BME280_humidity;BME280_pressure;Samples;Min_cycle;Max_cycle;Signal;HPM_P1;HPM_P2
2021/01/18 00:00:54;;;;;;;9.27;6.00;;;;;;;0.68;85.67;97139.34;5047699;28;20049;-71
2021/01/18 00:03:20;;;;;;;8.95;5.47;;;;;;;0.70;85.65;97139.22;5038596;28;20032;-71
2021/01/18 00:05:46;;;;;;;7.47;5.65;;;;;;;0.71;85.64;97151.16;5055581;28;20059;-71
2021/01/18 00:08:12;;;;;;;8.15;5.45;;;;;;;0.71;85.60;97144.22;5026783;28;20052;-71
2021/01/18 00:10:39;;;;;;;7.40;5.15;;;;;;;0.73;85.62;97146.69;5055726;28;20068;-72
2021/01/18 00:13:05;;;;;;;7.78;5.22;;;;;;;0.73;85.61;97147.47;5056332;28;20044;-71
2021/01/18 00:15:31;;;;;;;7.90;5.45;;;;;;;0.72;85.65;97138.13;5051695;28;20057;-71
2021/01/18 00:17:57;;;;;;;9.23;5.32;;;;;;;0.73;85.54;97139.75;5056343;28;20036;-71
2021/01/18 00:20:24;;;;;;;7.97;5.65;;;;;;;0.72;85.52;97142.47;5051597;28;20044;-71
2021/01/18 00:22:50;;;;;;;7.78;6.05;;;;;;;0.73;85.62;97138.94;5056764;28;20061;-71
2021/01/18 00:25:23;;;;;;;8.57;5.95;;;;;;;0.71;85.74;97133.09;5056342;28;20033;-71
2021/01/18 00:27:49;;;;;;;8.20;5.70;;;;;;;0.70;85.67;97139.22;5055727;28;20068;-71
2021/01/18 00:30:20;;;;;;;9.70;5.90;;;;;;;0.69;85.65;97132.41;5055166;28;20048;-71
2021/01/18 00:32:46;;;;;;;8.68;5.55;;;;;;;0.69;85.67;97137.59;5052177;28;20045;-71
2021/01/18 00:35:15;;;;;;;9.23;6.05;;;;;;;0.68;85.76;97136.78;5052465;28;20037;-71
2021/01/18 00:37:51;;;;;;;10.48;6.35;;;;;;;0.69;85.64;97132.41;5056510;28;20041;-71
2021/01/18 00:40:22;;;;;;;8.75;6.38;;;;;;;0.69;85.80;97142.75;5054655;28;20045;-71
2021/01/18 00:42:49;;;;;;;8.02;5.88;;;;;;;0.68;85.66;97141.13;5056908;28;20052;-71
2021/01/18 00:45:17;;;;;;;8.65;5.53;;;;;;;0.68;85.67;97144.53;5054179;28;20056;-71
2021/01/18 00:47:55;;;;;;;8.95;5.78;;;;;;;0.69;85.72;97142.75;5044011;28;20045;-71
2021/01/18 00:50:27;;;;;;;7.40;5.82;;;;;;;0.68;85.73;97130.81;5053645;28;20037;-71
2021/01/18 00:52:55;;;;;;;8.00;5.72;;;;;;;0.67;85.78;97139.47;5056450;28;20048;-71
2021/01/18 00:55:22;;;;;;;8.75;5.90;;;;;;;0.66;85.82;97136.09;5055050;28;20041;-71
2021/01/18 00:57:50;;;;;;;10.77;5.97;;;;;;;0.68;85.83;97146.28;5055111;28;20071;-71
2021/01/18 01:00:19;;;;;;;11.30;6.32;;;;;;;0.66;85.67;97143.84;5051526;28;20049;-71
2021/01/18 01:02:48;;;;;;;7.07;5.18;;;;;;;0.62;85.58;97136.50;5050967;28;20052;-71
2021/01/18 01:05:16;;;;;;;7.22;5.45;;;;;;;0.62;85.69;97134.75;5050133;28;20048;-71
2021/01/18 01:07:45;;;;;;;8.98;5.72;;;;;;;0.62;85.65;97133.94;5052464;28;20068;-71
2021/01/18 01:10:17;;;;;;;9.45;6.13;;;;;;;0.59;85.92;97130.69;5053213;28;20052;-71
2021/01/18 01:12:43;;;;;;;8.65;5.72;;;;;;;0.57;85.75;97132.59;5053854;28;20049;-71
2021/01/18 01:15:11;;;;;;;7.85;5.90;;;;;;;0.57;85.83;97137.75;5051940;28;20049;-71
2021/01/18 01:17:44;;;;;;;8.85;6.15;;;;;;;0.55;85.73;97141.41;5054746;28;20052;-71
2021/01/18 01:20:11;;;;;;;8.90;5.50;;;;;;;0.54;85.76;97143.16;5054009;28;20053;-71
2021/01/18 01:22:38;;;;;;;9.85;5.40;;;;;;;0.54;86.00;97143.16;5055236;28;20068;-71
2021/01/18 01:25:07;;;;;;;8.68;5.38;;;;;;;0.54;85.94;97138.00;5054898;28;20045;-71
2021/01/18 01:27:34;;;;;;;7.15;5.20;;;;;;;0.56;85.89;97138.69;5055059;28;20049;-71
2021/01/18 01:30:00;;;;;;;7.45;4.50;;;;;;;0.56;86.00;97143.84;5049138;28;20041;-71
2021/01/18 01:32:26;;;;;;;8.57;5.13;;;;;;;0.57;85.82;97142.91;5050551;28;20037;-71
2021/01/18 01:34:53;;;;;;;6.40;4.93;;;;;;;0.60;85.84;97144.38;5053370;28;20045;-71
2021/01/18 01:37:19;;;;;;;7.72;4.85;;;;;;;0.59;85.79;97148.75;5050536;28;20052;-71
2021/01/18 01:39:45;;;;;;;5.70;4.57;;;;;;;0.60;85.63;97150.34;5055550;28;20049;-71
2021/01/18 01:42:18;;;;;;;6.95;4.93;;;;;;;0.61;85.68;97151.19;5054527;28;20053;-71
2021/01/18 01:44:45;;;;;;;8.35;4.75;;;;;;;0.60;85.51;97154.72;5049740;28;20045;-71
2021/01/18 01:47:17;;;;;;;6.63;4.80;;;;;;;0.58;85.48;97152.25;5054666;28;20048;-71
2021/01/18 01:49:44;;;;;;;8.07;5.07;;;;;;;0.58;85.47;97154.03;5054606;28;20397;-73
2021/01/18 01:52:10;;;;;;;6.68;4.68;;;;;;;0.57;85.57;97152.41;5050636;28;20043;-71
2021/01/18 01:54:39;;;;;;;8.02;5.18;;;;;;;0.58;85.62;97159.19;5054130;28;20401;-71
2021/01/18 01:57:05;;;;;;;7.82;5.25;;;;;;;0.57;85.63;97155.81;5054601;28;20037;-72
2021/01/18 01:59:31;;;;;;;8.95;5.82;;;;;;;0.57;85.72;97155.00;5049367;28;20029;-71
2021/01/18 02:01:58;;;;;;;8.18;5.50;;;;;;;0.57;85.71;97155.00;5049765;28;20041;-71
2021/01/18 02:04:25;;;;;;;7.95;5.00;;;;;;;0.54;85.69;97158.66;5055344;28;20037;-71
2021/01/18 02:06:51;;;;;;;8.80;5.28;;;;;;;0.53;85.83;97163.97;5053139;28;20436;-71
2021/01/18 02:09:17;;;;;;;9.30;5.32;;;;;;;0.51;85.90;97171.84;5054060;28;20045;-71
2021/01/18 02:11:43;;;;;;;7.18;4.95;;;;;;;0.52;85.93;97164.91;5053526;28;20045;-71
2021/01/18 02:14:37;;;;;;;5.05;3.85;;;;;;;0.53;86.06;97159.63;5054108;28;20052;-71
2021/01/18 02:17:14;;;;;;;7.00;4.20;;;;;;;0.51;86.02;97158.94;5031896;28;20037;-71
2021/01/18 02:20:18;;;;;;;4.75;3.72;;;;;;;0.53;86.24;97157.03;5036788;28;20029;-71
2021/01/18 02:22:59;;;;;;;6.43;4.18;;;;;;;0.54;86.24;97160.41;5053494;28;20049;-71
2021/01/18 02:25:35;;;;;;;6.07;4.07;;;;;;;0.48;86.06;97164.34;5054397;28;20048;-71
2021/01/18 02:28:18;;;;;;;5.85;4.03;;;;;;;0.43;86.49;97158.00;5053897;28;20487;-71
2021/01/18 02:31:19;;;;;;;5.35;4.00;;;;;;;0.38;86.62;97171.31;5047811;28;20481;-71
2021/01/18 02:34:16;;;;;;;5.95;3.97;;;;;;;0.37;86.57;97167.09;5034887;28;20392;-71
2021/01/18 02:37:11;;;;;;;6.45;3.70;;;;;;;0.33;87.00;97169.13;5035642;28;20493;-71
2021/01/18 02:39:57;;;;;;;4.97;3.67;;;;;;;0.32;87.19;97166.69;5041499;28;20041;-71
2021/01/18 02:42:30;;;;;;;6.80;3.85;;;;;;;0.32;87.14;97164.13;5049520;28;20042;-71
2021/01/18 02:44:58;;;;;;;6.43;4.13;;;;;;;0.28;86.84;97175.66;5051629;28;20477;-71
2021/01/18 02:47:29;;;;;;;8.00;4.72;;;;;;;0.25;86.69;97181.06;5052965;28;20056;-71
2021/01/18 02:49:59;;;;;;;8.45;4.55;;;;;;;0.25;86.64;97181.88;5052001;28;20058;-72
2021/01/18 02:52:25;;;;;;;7.68;5.10;;;;;;;0.22;86.48;97183.94;5052704;28;20508;-71
2021/01/18 02:54:51;;;;;;;7.82;5.10;;;;;;;0.23;86.67;97186.34;5053287;28;20049;-71
2021/01/18 02:57:20;;;;;;;6.43;4.60;;;;;;;0.28;86.74;97191.13;5053118;28;20033;-71
2021/01/18 02:59:46;;;;;;;9.50;4.88;;;;;;;0.28;86.64;97188.53;5052645;28;20048;-71
2021/01/18 03:02:44;;;;;;;7.40;5.05;;;;;;;0.31;86.95;97190.84;5048544;28;20049;-71
2021/01/18 03:05:29;;;;;;;12.07;5.40;;;;;;;0.32;86.76;97179.59;5030784;28;20049;-71
2021/01/18 03:08:14;;;;;;;8.18;4.70;;;;;;;0.35;86.97;97187.03;5053421;28;20048;-71
2021/01/18 03:10:46;;;;;;;7.65;4.45;;;;;;;0.38;86.71;97189.38;5053664;28;20033;-71
2021/01/18 03:13:15;;;;;;;6.43;4.78;;;;;;;0.39;86.83;97184.06;5053884;28;20043;-71
2021/01/18 03:15:45;;;;;;;8.23;4.50;;;;;;;0.42;86.76;97190.72;5051598;28;20040;-71
2021/01/18 03:18:17;;;;;;;9.80;4.55;;;;;;;0.45;86.80;97185.28;5052530;28;20045;-71
2021/01/18 03:20:45;;;;;;;6.03;4.13;;;;;;;0.49;86.79;97186.66;5053203;28;20055;-71
2021/01/18 03:23:11;;;;;;;8.40;4.72;;;;;;;0.51;86.51;97179.59;5050067;28;20057;-71
2021/01/18 03:25:47;;;;;;;9.70;5.15;;;;;;;0.52;86.69;97178.63;5052352;28;20056;-71
2021/01/18 03:28:13;;;;;;;6.28;4.20;;;;;;;0.55;86.81;97187.88;5052207;28;20053;-71
2021/01/18 03:30:40;;;;;;;7.57;5.05;;;;;;;0.57;86.67;97183.41;5051977;28;20055;-71
2021/01/18 03:33:06;;;;;;;7.05;4.65;;;;;;;0.59;86.60;97181.50;5053057;28;20037;-71
2021/01/18 03:35:32;;;;;;;10.80;5.45;;;;;;;0.59;86.44;97181.50;5047298;28;20581;-71
2021/01/18 03:37:59;;;;;;;7.68;5.32;;;;;;;0.58;86.45;97175.50;5052178;28;20508;-71
2021/01/18 03:40:27;;;;;;;10.48;5.25;;;;;;;0.57;86.38;97184.19;5035753;28;20041;-71
2021/01/18 03:42:59;;;;;;;8.05;5.40;;;;;;;0.60;86.30;97180.53;5043061;28;20049;-71
2021/01/18 03:45:30;;;;;;;8.75;4.72;;;;;;;0.58;86.31;97180.66;5047253;28;20052;-73
2021/01/18 03:47:57;;;;;;;7.60;5.22;;;;;;;0.60;86.53;97180.53;5053037;28;20044;-71
2021/01/18 03:50:24;;;;;;;7.80;5.32;;;;;;;0.62;86.44;97170.06;5048019;28;20413;-71
2021/01/18 03:52:52;;;;;;;10.32;5.38;;;;;;;0.63;86.50;97176.84;5052841;28;20049;-71
2021/01/18 03:55:19;;;;;;;10.10;5.35;;;;;;;0.64;86.40;97181.06;5051803;28;20037;-71
2021/01/18 03:57:48;;;;;;;9.00;5.20;;;;;;;0.58;86.40;97175.50;5053564;28;20044;-71
2021/01/18 04:00:16;;;;;;;10.45;6.40;;;;;;;0.57;86.53;97175.66;5047825;28;20397;-71
2021/01/18 04:02:45;;;;;;;10.00;5.60;;;;;;;0.55;86.41;97186.09;5049950;28;20080;-71
2021/01/18 04:05:12;;;;;;;9.68;5.85;;;;;;;0.56;86.60;97174.81;5052091;28;20397;-71
2021/01/18 04:07:42;;;;;;;8.27;5.57;;;;;;;0.58;86.50;97185.81;5053252;28;20048;-71
2021/01/18 04:10:10;;;;;;;9.52;5.95;;;;;;;0.59;86.64;97178.91;5052508;28;20461;-71
2021/01/18 04:12:44;;;;;;;9.55;6.47;;;;;;;0.59;86.52;97178.91;5051772;28;20060;-71
2021/01/18 04:15:12;;;;;;;13.98;7.03;;;;;;;0.56;86.17;97186.91;5051441;28;20382;-71
2021/01/18 04:17:43;;;;;;;13.85;6.90;;;;;;;0.52;86.13;97182.97;5049328;28;20041;-71
2021/01/18 04:20:11;;;;;;;11.73;6.07;;;;;;;0.42;86.02;97180.41;5047030;28;20034;-71
2021/01/18 04:22:48;;;;;;;12.80;6.38;;;;;;;0.40;86.15;97184.88;5052044;28;20378;-71
2021/01/18 04:25:16;;;;;;;12.30;7.30;;;;;;;0.39;86.06;97191.00;5051796;28;20057;-71
2021/01/18 04:27:55;;;;;;;12.63;6.30;;;;;;;0.39;86.15;97191.78;5052618;28;20401;-71
2021/01/18 04:30:23;;;;;;;11.77;6.18;;;;;;;0.41;86.08;97181.34;5049359;28;20041;-71
2021/01/18 04:33:03;;;;;;;9.65;6.18;;;;;;;0.42;86.13;97187.31;5051517;28;20052;-71
2021/01/18 04:35:31;;;;;;;12.18;6.57;;;;;;;0.44;86.12;97180.25;5044444;28;20033;-71
2021/01/18 04:37:58;;;;;;;10.88;6.28;;;;;;;0.44;85.96;97183.63;5052287;28;20048;-71
2021/01/18 04:40:27;;;;;;;9.88;6.50;;;;;;;0.47;86.05;97182.56;5051558;28;20048;-71
2021/01/18 04:42:54;;;;;;;13.90;6.47;;;;;;;0.47;85.99;97185.97;5052304;28;20040;-71
2021/01/18 04:45:22;;;;;;;15.77;6.70;;;;;;;0.46;86.02;97174.00;5048986;28;20041;-71
2021/01/18 04:47:51;;;;;;;11.57;5.97;;;;;;;0.44;85.57;97170.75;5053495;28;20036;-71
2021/01/18 04:50:20;;;;;;;12.60;6.65;;;;;;;0.44;85.66;97180.25;5048792;28;20040;-71
2021/01/18 04:52:51;;;;;;;9.77;6.65;;;;;;;0.41;85.51;97173.59;5055701;28;20045;-71
2021/01/18 04:55:27;;;;;;;10.50;5.57;;;;;;;0.39;85.52;97183.25;5055834;28;20087;-71
2021/01/18 04:58:05;;;;;;;10.15;5.90;;;;;;;0.33;85.05;97187.16;5055855;28;20032;-71
2021/01/18 05:00:57;;;;;;;13.23;6.50;;;;;;;0.31;85.08;97185.69;5054082;28;20036;-71
2021/01/18 05:03:25;;;;;;;11.30;5.97;;;;;;;0.27;84.97;97190.28;5045670;28;20037;-71
2021/01/18 05:05:51;;;;;;;11.95;6.07;;;;;;;0.22;84.81;97189.91;5050559;28;20045;-71
2021/01/18 05:08:20;;;;;;;13.20;7.60;;;;;;;0.12;84.76;97191.63;5051324;28;20048;-71
2021/01/18 05:10:50;;;;;;;8.75;5.95;;;;;;;0.08;85.01;97192.84;5055724;28;20045;-71
2021/01/18 05:13:19;;;;;;;9.60;6.10;;;;;;;0.08;85.09;97195.44;5055893;28;20039;-70
2021/01/18 05:15:48;;;;;;;12.20;6.15;;;;;;;0.06;85.05;97181.84;5052926;28;20481;-71
2021/01/18 05:18:14;;;;;;;10.43;5.97;;;;;;;0.07;85.11;97196.41;5050727;28;20052;-71
2021/01/18 05:20:40;;;;;;;12.15;6.63;;;;;;;0.05;84.89;97199.09;5049640;28;20044;-71
2021/01/18 05:23:07;;;;;;;10.77;5.88;;;;;;;0.03;84.72;97206.16;5038385;28;20037;-71
2021/01/18 05:25:35;;;;;;;11.38;5.78;;;;;;;0.00;84.57;97209.00;5037804;28;20045;-71
2021/01/18 05:28:07;;;;;;;11.93;5.45;;;;;;;-0.04;84.37;97205.06;5055034;28;20032;-71
2021/01/18 05:30:51;;;;;;;8.52;5.60;;;;;;;-0.09;83.81;97199.47;5055306;28;20044;-71
2021/01/18 05:33:17;;;;;;;;;;;;;;;-0.13;82.75;97205.84;5055206;28;20057;-72
2021/01/18 05:35:48;;;;;;;8.02;4.82;;;;;;;-0.17;83.77;97214.78;5054180;28;20426;-71
2021/01/18 05:38:15;;;;;;;13.05;5.25;;;;;;;-0.20;84.24;97218.44;5054704;28;20033;-71
2021/01/18 05:40:45;;;;;;;6.93;4.88;;;;;;;-0.22;84.31;97216.00;5054520;28;20512;-71
2021/01/18 05:43:15;;;;;;;11.63;5.75;;;;;;;-0.26;84.23;97222.34;5054330;28;20041;-71
2021/01/18 05:45:44;;;;;;;11.20;5.57;;;;;;;-0.26;84.23;97222.34;5053499;28;20041;-71
2021/01/18 05:48:11;;;;;;;12.57;5.35;;;;;;;-0.27;84.20;97230.25;5054538;28;20048;-71
2021/01/18 05:50:39;;;;;;;7.38;4.65;;;;;;;-0.28;84.01;97234.56;5053256;28;20036;-71
2021/01/18 05:53:28;;;;;;;10.20;5.45;;;;;;;-0.30;82.96;97233.88;5054880;28;20033;-71
2021/01/18 05:55:54;;;;;;;15.13;5.30;;;;;;;-0.34;83.77;97236.84;5035968;28;20048;-71
2021/01/18 05:58:30;;;;;;;13.60;6.00;;;;;;;-0.34;83.69;97244.56;5054469;28;20033;-71
2021/01/18 06:00:57;;;;;;;11.48;5.55;;;;;;;-0.34;83.88;97247.97;5039150;28;20496;-71
2021/01/18 06:03:28;;;;;;;10.82;5.93;;;;;;;-0.36;83.91;97241.31;5053904;28;20040;-71
2021/01/18 06:05:55;;;;;;;9.32;6.60;;;;;;;-0.35;84.05;97243.75;5029515;28;20052;-71
2021/01/18 06:08:23;;;;;;;13.55;6.30;;;;;;;-0.36;84.36;97244.69;5055306;28;20064;-71
2021/01/18 06:10:52;;;;;;;12.80;5.85;;;;;;;-0.33;84.18;97246.22;5054817;28;20056;-71
2021/01/18 06:13:23;;;;;;;11.13;5.88;;;;;;;-0.33;83.84;97251.38;5041495;28;20045;-71
2021/01/18 06:16:11;;;;;;;15.27;6.20;;;;;;;-0.33;83.52;97253.94;5049085;28;20405;-71
2021/01/18 06:18:40;;;;;;;13.10;7.25;;;;;;;-0.33;83.70;97256.53;5053512;28;20049;-71
2021/01/18 06:21:09;;;;;;;14.95;7.28;;;;;;;-0.34;83.66;97260.84;5049954;28;20052;-71
2021/01/18 06:23:36;;;;;;;10.55;6.32;;;;;;;-0.35;83.84;97259.22;5053051;28;20049;-71
2021/01/18 06:26:03;;;;;;;10.40;6.43;;;;;;;-0.35;83.67;97263.56;5053891;28;20053;-71
2021/01/18 06:28:35;;;;;;;10.10;5.68;;;;;;;-0.37;83.59;97270.63;5052381;28;20048;-71
2021/01/18 06:31:02;;;;;;;13.25;5.47;;;;;;;-0.37;83.72;97271.44;5051192;28;20052;-71
2021/01/18 06:33:46;;;;;;;9.52;5.20;;;;;;;-0.35;83.57;97274.69;5052998;28;20366;-71
2021/01/18 06:36:18;;;;;;;12.90;5.95;;;;;;;-0.35;83.67;97269.53;5052370;28;20485;-71
2021/01/18 06:38:59;;;;;;;13.63;6.22;;;;;;;-0.33;83.66;97275.38;5053566;28;20060;-71
2021/01/18 06:41:38;;;;;;;12.52;5.80;;;;;;;-0.31;83.78;97270.91;5048707;28;20044;-71
2021/01/18 06:44:05;;;;;;;11.57;6.10;;;;;;;-0.32;83.65;97277.00;5052209;28;20052;-71
2021/01/18 06:46:34;;;;;;;13.00;6.20;;;;;;;-0.31;83.56;97277.84;5053778;28;20033;-71
2021/01/18 06:49:02;;;;;;;11.30;5.90;;;;;;;-0.28;83.95;97283.53;5053996;28;20033;-71
2021/01/18 06:51:30;;;;;;;11.15;5.97;;;;;;;-0.26;83.91;97279.06;5052826;28;20044;-71
2021/01/18 06:53:58;;;;;;;9.90;5.47;;;;;;;-0.23;83.95;97286.56;5052962;28;20041;-71
2021/01/18 06:56:47;;;;;;;8.93;5.63;;;;;;;-0.19;84.07;97275.97;5035519;28;20060;-71
2021/01/18 06:59:33;;;;;;;9.60;6.10;;;;;;;-0.17;84.01;97287.78;5052930;28;20045;-71
2021/01/18 07:02:22;;;;;;;12.35;5.90;;;;;;;-0.13;84.11;97280.59;5045568;28;20041;-71
2021/01/18 07:04:50;;;;;;;13.88;7.40;;;;;;;-0.13;84.08;97286.56;5037887;28;20381;-71
2021/01/18 07:07:31;;;;;;;14.57;7.15;;;;;;;-0.08;84.06;97283.63;5048027;28;20053;-71
2021/01/18 07:10:21;;;;;;;14.80;7.65;;;;;;;-0.04;84.09;97293.53;5033923;28;20045;-71
2021/01/18 07:12:48;;;;;;;22.02;7.85;;;;;;;-0.01;84.01;97290.69;5052421;28;20041;-71
2021/01/18 07:15:15;;;;;;;12.18;7.32;;;;;;;0.03;84.08;97295.59;5049232;28;20060;-72
2021/01/18 07:17:51;;;;;;;12.70;7.40;;;;;;;0.08;84.09;97301.16;5052802;28;20068;-71
2021/01/18 07:20:26;;;;;;;11.10;6.90;;;;;;;0.09;83.95;97295.88;5051789;28;20029;-71
2021/01/18 07:23:07;;;;;;;13.57;6.88;;;;;;;0.11;83.84;97300.94;5047614;28;20036;-71
2021/01/18 07:25:36;;;;;;;9.43;6.50;;;;;;;0.12;83.75;97303.34;5051991;28;20052;-71
2021/01/18 07:28:04;;;;;;;14.48;7.47;;;;;;;0.16;83.60;97306.50;5044130;28;20048;-71
2021/01/18 07:30:32;;;;;;;14.18;7.05;;;;;;;0.18;83.71;97310.56;5051845;28;20048;-71
2021/01/18 07:33:10;;;;;;;15.25;7.30;;;;;;;0.21;83.51;97312.09;5053992;28;20472;-71
2021/01/18 07:35:40;;;;;;;15.15;7.18;;;;;;;0.23;83.49;97315.31;5048182;28;20053;-71
2021/01/18 07:38:11;;;;;;;14.48;7.40;;;;;;;0.27;83.54;97321.06;5047430;28;20053;-71
2021/01/18 07:40:38;;;;;;;15.73;7.38;;;;;;;0.29;83.51;97314.81;5047650;28;20419;-71
2021/01/18 07:43:04;;;;;;;10.30;6.68;;;;;;;0.32;83.44;97322.28;5051370;28;20048;-72
2021/01/18 07:45:31;;;;;;;11.90;6.88;;;;;;;0.36;83.45;97326.25;5048896;28;20454;-72
2021/01/18 07:47:57;;;;;;;10.70;6.82;;;;;;;0.41;83.47;97336.16;5051903;28;20049;-71
2021/01/18 07:50:35;;;;;;;12.43;6.95;;;;;;;0.44;83.46;97329.91;5050247;28;20040;-72
2021/01/18 07:53:09;;;;;;;11.30;6.65;;;;;;;0.47;83.42;97332.25;5050234;28;20045;-72
2021/01/18 07:55:37;;;;;;;11.80;6.35;;;;;;;0.49;83.65;97341.50;5041977;28;20489;-72
2021/01/18 07:58:20;;;;;;;13.02;6.88;;;;;;;0.56;83.35;97342.56;5047500;28;20492;-71
2021/01/18 08:00:50;;;;;;;15.25;7.10;;;;;;;0.60;83.43;97332.81;5044957;28;20041;-71
2021/01/18 08:03:21;;;;;;;11.80;6.65;;;;;;;0.67;83.52;97335.66;5052683;28;20037;-71
2021/01/18 08:05:49;;;;;;;14.07;7.25;;;;;;;0.72;83.19;97339.50;5043159;28;20044;-72
2021/01/18 08:08:17;;;;;;;11.27;6.07;;;;;;;0.80;83.19;97349.16;5052086;28;20056;-71
2021/01/18 08:11:00;;;;;;;12.68;6.80;;;;;;;0.86;83.18;97346.03;5052871;28;20049;-71
2021/01/18 08:13:53;;;;;;;14.68;7.03;;;;;;;0.90;82.66;97342.22;5047309;28;20461;-71
2021/01/18 08:16:26;;;;;;;13.00;5.72;;;;;;;0.96;82.41;97344.25;5052617;28;20036;-71
2021/01/18 08:18:57;;;;;;;7.25;4.95;;;;;;;0.98;82.71;97342.34;5051139;28;20040;-71
2021/01/18 08:21:33;;;;;;;8.73;5.95;;;;;;;1.03;82.77;97344.56;5049843;28;20049;-73
2021/01/18 08:23:59;;;;;;;12.30;5.93;;;;;;;1.06;82.73;97348.63;5055867;28;20486;-71
2021/01/18 08:26:25;;;;;;;14.18;5.80;;;;;;;1.08;82.70;97344.16;5055577;28;20477;-71
2021/01/18 08:28:52;;;;;;;11.98;5.90;;;;;;;1.08;82.74;97350.13;5047937;28;20056;-71
2021/01/18 08:31:18;;;;;;;12.75;6.38;;;;;;;1.10;82.55;97352.56;5053681;28;20049;-71
2021/01/18 08:33:44;;;;;;;10.13;5.88;;;;;;;1.13;82.57;97347.13;5055441;28;20060;-71
2021/01/18 08:36:11;;;;;;;12.05;5.95;;;;;;;1.16;82.51;97354.63;5055142;28;20056;-71
2021/01/18 08:38:37;;;;;;;10.15;5.80;;;;;;;1.08;82.50;97346.72;5055492;28;20056;-71
2021/01/18 08:41:08;;;;;;;13.00;6.38;;;;;;;1.03;82.45;97347.16;5050037;28;20390;-71
2021/01/18 08:43:50;;;;;;;9.32;5.90;;;;;;;0.99;82.76;97344.00;5056016;28;20051;-71
2021/01/18 08:46:37;;;;;;;16.63;7.07;;;;;;;0.98;82.93;97346.72;5055984;28;20036;-71
2021/01/18 08:49:26;;;;;;;10.48;6.32;;;;;;;0.92;83.32;97350.66;5055684;28;20039;-71
2021/01/18 08:51:53;;;;;;;12.85;6.82;;;;;;;0.89;83.05;97350.94;5054100;28;20134;-71
2021/01/18 08:54:36;;;;;;;8.95;6.50;;;;;;;0.91;83.65;97367.09;5052676;28;20037;-71
2021/01/18 08:57:38;;;;;;;13.15;6.32;;;;;;;0.98;83.61;97359.63;5047784;28;20037;-71
2021/01/18 09:00:10;;;;;;;10.98;5.55;;;;;;;1.02;83.43;97364.38;5051525;28;20057;-71
2021/01/18 09:02:40;;;;;;;10.02;6.10;;;;;;;1.06;83.28;97362.34;5055234;28;20049;-71
2021/01/18 09:05:20;;;;;;;12.57;6.43;;;;;;;1.09;83.29;97367.28;5055004;28;20041;-71
2021/01/18 09:07:49;;;;;;;10.70;6.03;;;;;;;1.12;83.11;97366.97;5053451;28;20049;-71
2021/01/18 09:10:18;;;;;;;11.23;6.57;;;;;;;1.12;83.15;97364.41;5044772;28;20059;-71
2021/01/18 09:12:47;;;;;;;9.70;5.68;;;;;;;1.12;83.00;97358.44;5054715;28;20033;-71
2021/01/18 09:15:16;;;;;;;10.55;5.43;;;;;;;1.17;83.28;97364.78;5055444;28;20028;-71
2021/01/18 09:17:42;;;;;;;8.02;5.40;;;;;;;1.22;83.03;97354.06;5037712;28;20035;-72
2021/01/18 09:20:10;;;;;;;12.43;5.35;;;;;;;1.27;82.96;97358.84;5047769;28;20052;-71
2021/01/18 09:22:42;;;;;;;8.85;5.65;;;;;;;1.36;82.92;97358.00;5067200;28;20045;-71
2021/01/18 09:25:10;;;;;;;12.77;6.10;;;;;;;1.42;82.73;97360.03;5065007;28;20048;-71
2021/01/18 09:27:38;;;;;;;7.60;5.43;;;;;;;1.49;82.77;97368.03;5074507;28;20071;-71
2021/01/18 09:30:17;;;;;;;11.25;5.70;;;;;;;1.57;82.53;97363.00;5074371;28;20048;-70
2021/01/18 09:32:55;;;;;;;11.93;5.82;;;;;;;1.58;82.21;97370.63;5074482;28;20041;-70
2021/01/18 09:35:21;;;;;;;12.13;6.22;;;;;;;1.61;82.34;97375.50;5061964;28;20488;-71
2021/01/18 09:37:50;;;;;;;14.13;7.07;;;;;;;1.65;82.30;97376.06;5074567;28;20072;-70
2021/01/18 09:40:17;;;;;;;15.93;6.50;;;;;;;1.70;82.29;97379.06;5074131;28;20036;-71
2021/01/18 09:42:47;;;;;;;10.55;7.13;;;;;;;1.72;82.45;97373.72;5074573;28;20049;-71
2021/01/18 09:45:14;;;;;;;12.25;7.07;;;;;;;1.75;82.41;97374.28;5073027;28;20041;-71
2021/01/18 09:47:41;;;;;;;46.58;27.20;;;;;;;1.79;82.13;97367.88;5071661;28;20056;-71
2021/01/18 09:50:14;;;;;;;27.52;15.18;;;;;;;1.79;82.10;97369.66;5073782;28;20047;-70
2021/01/18 09:52:46;;;;;;;26.65;15.80;;;;;;;1.88;82.22;97373.97;5074768;28;20063;-70
2021/01/18 09:55:33;;;;;;;16.38;8.40;;;;;;;1.98;81.88;97371.38;5075423;28;20051;-70
2021/01/18 09:58:06;;;;;;;39.85;22.48;;;;;;;2.09;82.24;97371.19;5074074;28;20040;-71
2021/01/18 10:00:34;;;;;;;30.98;18.20;;;;;;;2.27;81.88;97373.03;5075154;28;20059;-70
2021/01/18 10:03:02;;;;;;;25.30;14.93;;;;;;;2.40;81.82;97371.75;5077911;28;20036;-71
2021/01/18 10:05:45;;;;;;;20.08;11.18;;;;;;;2.42;80.79;97371.63;5072122;28;20481;-71
2021/01/18 10:08:21;;;;;;;45.65;24.00;;;;;;;2.38;80.70;97371.06;5065710;28;20056;-72
2021/01/18 10:10:50;;;;;;;15.95;9.52;;;;;;;2.31;81.00;97364.84;5071351;28;20037;-70
2021/01/18 10:13:19;;;;;;;14.82;9.00;;;;;;;2.27;81.08;97357.50;5074078;28;20028;-70
2021/01/18 10:15:47;;;;;;;13.07;7.93;;;;;;;2.37;81.22;97358.28;5074274;28;20032;-71
2021/01/18 10:18:35;;;;;;;20.30;12.40;;;;;;;2.43;80.47;97355.91;5074142;28;20043;-71
2021/01/18 10:21:02;;;;;;;15.25;7.43;;;;;;;2.50;80.74;97352.75;5068953;28;20405;-71
2021/01/18 10:23:44;;;;;;;43.35;24.60;;;;;;;2.52;80.00;97356.00;5053463;28;20060;-71
2021/01/18 10:26:23;;;;;;;24.75;14.13;;;;;;;2.53;80.19;97353.28;5052941;28;20044;-70
2021/01/18 10:28:54;;;;;;;18.77;11.07;;;;;;;2.56;80.29;97342.66;5053272;28;20041;-70
2021/01/18 10:31:26;;;;;;;22.55;10.48;;;;;;;2.62;79.88;97330.88;5053215;28;20040;-71
2021/01/18 10:34:09;;;;;;;18.60;10.18;;;;;;;2.69;79.64;97339.72;5053368;28;20049;-71
2021/01/18 10:36:35;;;;;;;8.02;5.75;;;;;;;2.80;80.10;97341.28;5048663;28;20055;-70
2021/01/18 10:39:03;;;;;;;13.40;7.10;;;;;;;2.82;79.63;97332.38;5053302;28;20473;-71
2021/01/18 10:41:34;;;;;;;20.98;10.50;;;;;;;2.76;79.18;97338.16;5057876;28;20064;-71
2021/01/18 10:44:05;;;;;;;16.48;9.30;;;;;;;2.65;79.13;97340.97;5054118;28;20052;-71
2021/01/18 10:46:33;;;;;;;15.85;9.70;;;;;;;2.52;79.34;97345.66;5048154;28;20049;-70
2021/01/18 10:49:00;;;;;;;14.65;6.90;;;;;;;2.44;79.78;97348.97;5051698;28;20413;-71
2021/01/18 10:51:28;;;;;;;13.27;6.40;;;;;;;2.32;79.71;97340.59;5042431;28;20408;-71
2021/01/18 10:53:59;;;;;;;15.00;7.28;;;;;;;2.25;80.04;97336.94;5051800;28;20044;-71
2021/01/18 10:56:34;;;;;;;19.50;10.68;;;;;;;2.20;80.14;97332.19;5033205;28;20041;-71
2021/01/18 10:59:01;;;;;;;17.85;9.85;;;;;;;2.23;80.32;97333.69;5035388;28;20053;-71
2021/01/18 11:01:28;;;;;;;36.65;17.90;;;;;;;2.23;80.27;97338.88;5052644;28;20384;-72
2021/01/18 11:04:03;;;;;;;20.33;11.13;;;;;;;2.23;80.45;97342.25;5058409;28;20044;-71
2021/01/18 11:06:33;;;;;;;9.27;6.63;;;;;;;2.30;80.35;97336.50;5047446;28;20504;-71
2021/01/18 11:09:00;;;;;;;12.52;6.55;;;;;;;2.39;80.48;97340.81;5048980;28;20057;-71
2021/01/18 11:11:27;;;;;;;16.27;8.45;;;;;;;2.43;80.54;97336.97;5049899;28;20492;-70
2021/01/18 11:14:05;;;;;;;45.65;34.25;;;;;;;2.53;80.00;97342.13;5051745;28;20052;-70
2021/01/18 11:16:32;;;;;;;13.07;8.57;;;;;;;2.48;79.88;97337.38;5042333;28;20044;-71
2021/01/18 11:19:04;;;;;;;12.43;7.13;;;;;;;2.54;80.05;97333.38;5042360;28;20493;-70
2021/01/18 11:21:31;;;;;;;11.68;6.32;;;;;;;2.63;80.29;97329.94;5037640;28;20501;-71
2021/01/18 11:23:57;;;;;;;9.38;5.95;;;;;;;2.75;80.00;97322.75;5026961;28;20072;-72
2021/01/18 11:26:24;;;;;;;7.78;5.40;;;;;;;2.90;80.16;97328.25;5050536;28;20040;-71
2021/01/18 11:28:51;;;;;;;7.32;4.60;;;;;;;3.02;79.46;97327.91;5055445;28;20052;-70
2021/01/18 11:31:17;;;;;;;8.00;5.22;;;;;;;3.14;79.32;97327.66;5034412;28;20044;-71
2021/01/18 11:33:44;;;;;;;9.15;4.88;;;;;;;3.25;79.24;97324.81;5051706;28;20052;-71
2021/01/18 11:36:11;;;;;;;7.25;4.07;;;;;;;3.30;78.94;97319.19;5030941;28;20048;-71
2021/01/18 11:38:39;;;;;;;6.20;4.05;;;;;;;3.35;78.88;97315.19;5044574;28;20041;-71
2021/01/18 11:41:06;;;;;;;6.82;4.57;;;;;;;3.39;78.65;97308.72;5038515;28;20064;-70
2021/01/18 11:43:35;;;;;;;7.45;4.20;;;;;;;3.40;77.92;97310.38;5042893;28;20469;-70
2021/01/18 11:46:01;;;;;;;6.47;4.03;;;;;;;3.42;78.27;97305.84;5050597;28;20067;-70
2021/01/18 11:48:27;;;;;;;10.32;5.28;;;;;;;3.48;78.02;97308.78;5052427;28;20044;-71
2021/01/18 11:50:55;;;;;;;8.15;4.38;;;;;;;3.45;77.74;97309.91;5050712;28;20072;-71
2021/01/18 11:53:21;;;;;;;9.30;3.58;;;;;;;3.44;77.78;97301.34;5045979;28;20045;-71
2021/01/18 11:55:49;;;;;;;11.07;4.00;;;;;;;3.48;77.43;97306.19;5046317;28;20041;-71